Baton Rouge, LA

6:32 AM CDT on April 25, 2015 (GMT -0500)
415/Court St | | Change Station
CLOSE
Current Station
Personal Weather Station
Location: Port Allen, LA
Elevation: 30 ft
Nearby Weather Stations
Active Advisory: Flood Warning

Elev 30 ft 30.45 °N, 91.24 °W | Updated 15 seconds ago

Partly Cloudy
Partly Cloudy
73.2 °F
Feels Like 70 °F
N
4.0
Wind Variable Wind from South
Gusts 4.0 mph

Today
High -- | Low -- °F
--% Chance of Precip.
Yesterday
High -- | Low -- °F
Precip. -- in
6:27 AM 7:38 PM
Waxing Crescent, 45% visible
Pressure 29.80 in
Visibility 6.0 miles
Clouds Few 900 ft
Heat Index 70 °F
Dew Point 71 °F
Humidity 93%
Rainfall 0.00 in
Snow Depth Not available.
UV 0 out of 12
Pollen 7.70 out of 12
Air Quality Not available.
Flu Activity Sporadic
METAR KBTR 251053Z 23006KT 6SM BR FEW009 24/23 A2980 RMK AO2 SLP089 T02390228

More Conditions Fewer Conditions

Pressure 29.80 in
Visibility 6.0 miles
Clouds Few 900 ft
Heat Index 70 °F
Dew Point 71 °F
Humidity 93%
Rainfall 0.00 in
Snow Depth Not available.
UV 0 out of 12
Pollen 7.70 out of 12
Air Quality Not available.
Flu Activity Sporadic
METAR KBTR 251053Z 23006KT 6SM BR FEW009 24/23 A2980 RMK AO2 SLP089 T02390228

More Conditions Fewer Conditions

10-Day Weather Forecast

Almanac

Astronomy

Apr. 25, 2015 Rise Set
Actual Time
Civil Twilight
Nautical Twilight
Astronomical Twilight
Moon
Length of Visible Light
Length of Day
Tomorrow will be .
, % of the Moon is Illuminated

Today's Extremes

State Highs State Lows

Community

WunderPhotos

Upload Photos

1,816,642 photos uploaded!

WunderBlogs® & News

Nearby

Air Quality

  Air Quality AQ Index Pollutant
Not available.

Snow Depth

Station Depth Elevation

Earthquake Activity

City Distance Mag. Time & Date
Minimum magnitude displayed is 2.5.

Coastal Water Temperatures

Place Temperature

Stations

Nearby Weather Stations

Station Location Temp. Windchill Dew Point Humidity Wind Precip. Elev Updated Type
                   
Flood Warning
Statement as of 9:41 PM CDT on April 24, 2015

The Flood Warning continues for
the Mississippi River at Red River Landing.
* Until further notice.
* At 8:00 PM Friday the stage was 51.0 feet.
* Minor flooding is occurring and minor flooding is forecast.
* Flood stage is 48.0 feet.
* Forecast... the river will continue rising to near 51.5 feet by
Monday morning then begin falling.
* Impact... at 51.0 feet... all river islands along The Reach from Red
River Landing to Baton Rouge will be inundated. Recreational camps
and river bottom farm land will be under water.
* Impact... at 48.0 feet... access roads will be inundated and
evacuation of all river islands must be complete. Protection of
people and property in the river bottom land on the river side of
the levees must be complete.


Lat... Lon 3103 9153 3102 9170 3071 9159 3074 9137